Back to Top

Language: 

My Weather Underground Personal Weather Station Historical Data with Graphs...

Delerius Weather Station Historical Data
Daily Summary for June 11, 2017 Units:  English    Metric   Both
« Previous Day
Next Day »
Daily Weekly Monthly Yearly Custom
  High: Low: Average:
Temperature: 66.7 °F 55.2 °F 60.3 °F
Dew Point: 56.3 °F 48.0 °F 51.7 °F
Humidity: 88 % 57 % 74 %
Wind Speed: 20.0 mph 5.0 mph 12.3 mph
Wind Gust: 38.0 mph - -
Wind:- - SW
Pressure: 29.88 in 29.73 in -
Precipitation: 0.01 in    
Historical Graphs
 
 
Tabular Data for June 11, 2017
Time Temperature Dew Point Pressure Wind Wind Speed Wind Gust Humidity Rainfall Rate (Hourly) solar Conditions
00:01 58.5 °F 54.0 °F 29.87 in SW 8.0 mph 14.0 mph 85 % 0.00 in 0 W/m2
00:06 58.5 °F 54.0 °F 29.87 in WSW 8.0 mph 12.0 mph 85 % 0.00 in 0 W/m2
00:12 58.3 °F 53.8 °F 29.87 in WSW 8.0 mph 13.0 mph 85 % 0.00 in 0 W/m2
00:17 58.3 °F 53.8 °F 29.87 in WSW 7.0 mph 13.0 mph 85 % 0.00 in 0 W/m2
00:22 58.1 °F 53.6 °F 29.88 in WSW 7.0 mph 12.0 mph 85 % 0.00 in 0 W/m2
00:27 57.9 °F 53.4 °F 29.87 in WSW 7.0 mph 11.0 mph 85 % 0.00 in 0 W/m2
00:32 57.9 °F 53.4 °F 29.88 in WSW 6.0 mph 11.0 mph 85 % 0.00 in 0 W/m2
00:37 57.7 °F 53.3 °F 29.88 in SW 5.0 mph 9.0 mph 85 % 0.00 in 0 W/m2
00:38 57.6 °F 53.4 °F 29.88 in SW 5.0 mph 9.0 mph 86 % 0.00 in 0 W/m2
00:43 57.6 °F 53.4 °F 29.88 in SW 6.0 mph 14.0 mph 86 % 0.00 in 0 W/m2
00:48 57.6 °F 53.4 °F 29.88 in SW 8.0 mph 14.0 mph 86 % 0.00 in 0 W/m2
00:53 57.6 °F 53.1 °F 29.88 in SW 7.0 mph 12.0 mph 85 % 0.00 in 0 W/m2
00:58 57.6 °F 53.1 °F 29.88 in SW 6.0 mph 11.0 mph 85 % 0.00 in 0 W/m2
01:03 57.4 °F 53.2 °F 29.87 in SW 6.0 mph 10.0 mph 86 % 0.00 in 0 W/m2
01:09 57.2 °F 53.0 °F 29.87 in SW 6.0 mph 11.0 mph 86 % 0.00 in 0 W/m2
01:14 57.2 °F 53.0 °F 29.88 in SW 7.0 mph 11.0 mph 86 % 0.00 in 0 W/m2
01:19 57.0 °F 52.9 °F 29.87 in SW 7.0 mph 10.0 mph 86 % 0.00 in 0 W/m2
01:24 57.0 °F 52.9 °F 29.87 in SW 7.0 mph 10.0 mph 86 % 0.00 in 0 W/m2
01:29 57.0 °F 53.2 °F 29.87 in SW 7.0 mph 12.0 mph 87 % 0.00 in 0 W/m2
01:34 57.0 °F 53.2 °F 29.87 in SW 7.0 mph 13.0 mph 87 % 0.00 in 0 W/m2
01:39 57.2 °F 53.4 °F 29.87 in SW 7.0 mph 16.0 mph 87 % 0.00 in 0 W/m2
01:44 57.2 °F 53.0 °F 29.87 in SW 8.0 mph 16.0 mph 86 % 0.00 in 0 W/m2
01:49 57.4 °F 53.2 °F 29.86 in SSW 8.0 mph 14.0 mph 86 % 0.00 in 0 W/m2
01:54 57.4 °F 53.2 °F 29.86 in SSW 9.0 mph 14.0 mph 86 % 0.00 in 0 W/m2
01:59 57.4 °F 53.2 °F 29.86 in SW 7.0 mph 11.0 mph 86 % 0.00 in 0 W/m2
02:04 57.2 °F 53.0 °F 29.86 in SW 8.0 mph 12.0 mph 86 % 0.00 in 0 W/m2
02:09 57.2 °F 53.0 °F 29.86 in SSW 9.0 mph 14.0 mph 86 % 0.00 in 0 W/m2
02:14 57.4 °F 52.9 °F 29.86 in SSW 10.0 mph 16.0 mph 85 % 0.00 in 0 W/m2
02:19 57.4 °F 52.9 °F 29.86 in SSW 10.0 mph 16.0 mph 85 % 0.00 in 0 W/m2
02:24 57.4 °F 52.9 °F 29.86 in SSW 9.0 mph 14.0 mph 85 % 0.00 in 0 W/m2
02:29 57.0 °F 52.6 °F 29.86 in SW 7.0 mph 14.0 mph 85 % 0.00 in 0 W/m2
02:34 56.8 °F 52.7 °F 29.86 in SW 7.0 mph 10.0 mph 86 % 0.00 in 0 W/m2
02:40 56.8 °F 52.7 °F 29.86 in SW 7.0 mph 11.0 mph 86 % 0.00 in 0 W/m2
02:45 56.7 °F 52.5 °F 29.86 in SW 7.0 mph 11.0 mph 86 % 0.00 in 0 W/m2
02:50 56.5 °F 52.3 °F 29.86 in SW 7.0 mph 11.0 mph 86 % 0.00 in 0 W/m2
02:55 56.5 °F 52.7 °F 29.86 in SW 6.0 mph 11.0 mph 87 % 0.00 in 0 W/m2
03:00 56.3 °F 52.5 °F 29.86 in SW 6.0 mph 8.0 mph 87 % 0.00 in 0 W/m2
03:05 56.1 °F 52.3 °F 29.86 in SW 6.0 mph 10.0 mph 87 % 0.00 in 0 W/m2
03:10 56.1 °F 52.3 °F 29.86 in SW 7.0 mph 11.0 mph 87 % 0.00 in 0 W/m2
03:15 56.1 °F 52.3 °F 29.86 in SSW 8.0 mph 13.0 mph 87 % 0.00 in 0 W/m2
03:20 56.1 °F 52.3 °F 29.86 in SSW 9.0 mph 13.0 mph 87 % 0.00 in 0 W/m2
03:25 56.1 °F 52.3 °F 29.86 in SSW 9.0 mph 15.0 mph 87 % 0.00 in 0 W/m2
03:30 56.5 °F 52.7 °F 29.86 in SSW 10.0 mph 15.0 mph 87 % 0.00 in 0 W/m2
03:35 56.5 °F 52.7 °F 29.86 in SSW 9.0 mph 14.0 mph 87 % 0.00 in 0 W/m2
03:45 56.3 °F 52.5 °F 29.86 in SW 9.0 mph 14.0 mph 87 % 0.00 in 0 W/m2
03:50 56.3 °F 52.5 °F 29.86 in SW 10.0 mph 14.0 mph 87 % 0.00 in 0 W/m2
03:55 56.3 °F 52.5 °F 29.85 in SW 9.0 mph 14.0 mph 87 % 0.00 in 0 W/m2
04:00 56.3 °F 52.5 °F 29.86 in SW 8.0 mph 12.0 mph 87 % 0.00 in 0 W/m2
04:05 56.1 °F 52.3 °F 29.85 in SW 9.0 mph 13.0 mph 87 % 0.00 in 0 W/m2
04:10 56.1 °F 52.3 °F 29.85 in SW 9.0 mph 13.0 mph 87 % 0.00 in 0 W/m2
04:15 56.1 °F 52.3 °F 29.85 in SW 10.0 mph 14.0 mph 87 % 0.00 in 0 W/m2
04:20 56.1 °F 52.3 °F 29.85 in SW 10.0 mph 14.0 mph 87 % 0.00 in 0 W/m2
04:25 55.9 °F 52.1 °F 29.85 in SW 9.0 mph 14.0 mph 87 % 0.00 in 0 W/m2
04:30 55.9 °F 52.1 °F 29.85 in SW 9.0 mph 14.0 mph 87 % 0.00 in 0 W/m2
04:35 55.8 °F 51.9 °F 29.85 in SW 9.0 mph 13.0 mph 87 % 0.00 in 5 W/m2
04:40 55.6 °F 51.8 °F 29.85 in SW 9.0 mph 13.0 mph 87 % 0.00 in 5 W/m2
04:45 55.6 °F 51.8 °F 29.85 in SW 9.0 mph 13.0 mph 87 % 0.00 in 9 W/m2
04:50 55.6 °F 51.8 °F 29.85 in SW 9.0 mph 13.0 mph 87 % 0.00 in 11 W/m2
04:55 55.4 °F 51.6 °F 29.85 in SW 9.0 mph 12.0 mph 87 % 0.00 in 14 W/m2
05:00 55.4 °F 51.9 °F 29.84 in SW 9.0 mph 12.0 mph 88 % 0.00 in 18 W/m2
05:05 55.2 °F 51.7 °F 29.85 in SW 9.0 mph 12.0 mph 88 % 0.00 in 21 W/m2
05:11 55.2 °F 51.7 °F 29.84 in SW 8.0 mph 12.0 mph 88 % 0.00 in 23 W/m2
05:15 55.4 °F 51.9 °F 29.84 in SW 8.0 mph 13.0 mph 88 % 0.00 in 28 W/m2
05:21 55.6 °F 52.1 °F 29.84 in SW 9.0 mph 13.0 mph 88 % 0.00 in 26 W/m2
05:31 56.1 °F 52.3 °F 29.85 in SW 8.0 mph 13.0 mph 87 % 0.00 in 30 W/m2
05:36 56.1 °F 52.3 °F 29.84 in SW 8.0 mph 13.0 mph 87 % 0.00 in 37 W/m2
05:41 56.1 °F 52.0 °F 29.84 in SW 9.0 mph 14.0 mph 86 % 0.00 in 26 W/m2
05:46 56.3 °F 52.2 °F 29.84 in SW 10.0 mph 14.0 mph 86 % 0.00 in 26 W/m2
05:51 56.5 °F 52.0 °F 29.84 in SW 10.0 mph 14.0 mph 85 % 0.00 in 33 W/m2
05:56 56.5 °F 52.0 °F 29.84 in SW 10.0 mph 14.0 mph 85 % 0.00 in 37 W/m2
06:01 56.7 °F 52.2 °F 29.84 in SW 10.0 mph 16.0 mph 85 % 0.00 in 42 W/m2
06:06 56.7 °F 51.9 °F 29.84 in SW 10.0 mph 16.0 mph 84 % 0.00 in 26 W/m2
06:11 56.8 °F 52.1 °F 29.84 in SW 10.0 mph 16.0 mph 84 % 0.00 in 69 W/m2
06:16 57.0 °F 52.2 °F 29.84 in SW 10.0 mph 18.0 mph 84 % 0.00 in 40 W/m2
06:21 57.2 °F 52.4 °F 29.84 in SW 11.0 mph 23.0 mph 84 % 0.00 in 49 W/m2
06:26 57.4 °F 52.3 °F 29.84 in SW 13.0 mph 23.0 mph 83 % 0.00 in 44 W/m2
06:31 57.6 °F 52.4 °F 29.84 in SW 13.0 mph 22.0 mph 83 % 0.00 in 42 W/m2
06:36 57.7 °F 52.6 °F 29.84 in SW 13.0 mph 20.0 mph 83 % 0.00 in 46 W/m2
06:41 57.7 °F 52.6 °F 29.84 in SW 13.0 mph 20.0 mph 83 % 0.00 in 49 W/m2
06:46 57.9 °F 52.8 °F 29.84 in SW 12.0 mph 21.0 mph 83 % 0.00 in 56 W/m2
06:51 58.1 °F 52.6 °F 29.84 in SW 13.0 mph 21.0 mph 82 % 0.00 in 83 W/m2
06:56 58.3 °F 52.8 °F 29.84 in SW 14.0 mph 23.0 mph 82 % 0.00 in 114 W/m2
07:01 58.5 °F 52.6 °F 29.84 in SW 14.0 mph 23.0 mph 81 % 0.00 in 116 W/m2
07:06 58.5 °F 53.0 °F 29.84 in SW 13.0 mph 22.0 mph 82 % 0.00 in 125 W/m2
07:11 58.5 °F 52.6 °F 29.84 in SW 12.0 mph 20.0 mph 81 % 0.00 in 134 W/m2
07:21 58.5 °F 52.6 °F 29.84 in SW 13.0 mph 20.0 mph 81 % 0.00 in 141 W/m2
07:26 58.5 °F 53.0 °F 29.84 in SW 12.0 mph 20.0 mph 82 % 0.00 in 130 W/m2
07:31 58.5 °F 53.0 °F 29.84 in SW 11.0 mph 18.0 mph 82 % 0.00 in 137 W/m2
07:36 58.5 °F 53.0 °F 29.84 in SW 11.0 mph 20.0 mph 82 % 0.00 in 156 W/m2
07:37 58.5 °F 53.0 °F 29.84 in SW 11.0 mph 20.0 mph 82 % 0.00 in 156 W/m2
07:42 58.5 °F 53.0 °F 29.84 in SW 12.0 mph 20.0 mph 82 % 0.00 in 158 W/m2
07:47 58.5 °F 53.0 °F 29.84 in SW 12.0 mph 20.0 mph 82 % 0.00 in 153 W/m2
07:52 58.6 °F 53.2 °F 29.84 in SW 11.0 mph 18.0 mph 82 % 0.00 in 153 W/m2
07:57 58.6 °F 53.2 °F 29.84 in SW 10.0 mph 18.0 mph 82 % 0.00 in 162 W/m2
08:02 58.6 °F 52.8 °F 29.84 in SW 10.0 mph 19.0 mph 81 % 0.00 in 163 W/m2
08:07 58.8 °F 53.3 °F 29.84 in SW 9.0 mph 19.0 mph 82 % 0.00 in 171 W/m2
08:12 58.8 °F 52.7 °F 29.84 in SW 10.0 mph 21.0 mph 80 % 0.00 in 167 W/m2
08:17 59.0 °F 52.8 °F 29.84 in SW 12.0 mph 21.0 mph 80 % 0.00 in 163 W/m2
08:27 59.2 °F 53.0 °F 29.84 in SW 10.0 mph 16.0 mph 80 % 0.00 in 167 W/m2
08:32 59.2 °F 52.3 °F 29.84 in SW 10.0 mph 18.0 mph 78 % 0.00 in 202 W/m2
08:37 59.4 °F 52.5 °F 29.84 in SW 10.0 mph 18.0 mph 78 % 0.00 in 220 W/m2
08:42 59.5 °F 52.7 °F 29.84 in SW 11.0 mph 20.0 mph 78 % 0.00 in 183 W/m2
08:47 59.5 °F 52.3 °F 29.84 in SW 12.0 mph 20.0 mph 77 % 0.00 in 232 W/m2
08:52 59.7 °F 52.5 °F 29.84 in SW 12.0 mph 25.0 mph 77 % 0.00 in 311 W/m2
08:57 59.9 °F 52.7 °F 29.84 in SW 12.0 mph 25.0 mph 77 % 0.00 in 174 W/m2
09:02 59.7 °F 52.5 °F 29.84 in SW 12.0 mph 20.0 mph 77 % 0.00 in 130 W/m2
09:07 59.7 °F 52.5 °F 29.84 in SW 11.0 mph 18.0 mph 77 % 0.00 in 153 W/m2
09:12 59.7 °F 52.5 °F 29.84 in SW 11.0 mph 18.0 mph 77 % 0.00 in 153 W/m2
09:17 59.7 °F 52.5 °F 29.84 in SW 11.0 mph 20.0 mph 77 % 0.00 in 297 W/m2
09:22 60.3 °F 53.0 °F 29.84 in SW 11.0 mph 20.0 mph 77 % 0.00 in 554 W/m2
09:27 60.6 °F 52.6 °F 29.83 in SW 11.0 mph 18.0 mph 75 % 0.00 in 489 W/m2
09:32 61.2 °F 52.8 °F 29.83 in SW 11.0 mph 23.0 mph 74 % 0.00 in 327 W/m2
09:37 61.2 °F 52.4 °F 29.83 in SW 12.0 mph 23.0 mph 73 % 0.00 in 287 W/m2
09:42 61.0 °F 52.6 °F 29.83 in SW 12.0 mph 20.0 mph 74 % 0.00 in 401 W/m2
09:47 61.2 °F 52.8 °F 29.83 in SW 11.0 mph 18.0 mph 74 % 0.00 in 200 W/m2
09:53 61.0 °F 52.3 °F 29.83 in SW 11.0 mph 18.0 mph 73 % 0.00 in 246 W/m2
09:58 61.2 °F 52.8 °F 29.83 in SW 12.0 mph 19.0 mph 74 % 0.00 in 271 W/m2
10:03 61.5 °F 53.2 °F 29.82 in SW 12.0 mph 20.0 mph 74 % 0.00 in 1002 W/m2
10:08 62.1 °F 53.3 °F 29.82 in SW 13.0 mph 20.0 mph 73 % 0.00 in 274 W/m2
10:13 61.9 °F 52.8 °F 29.82 in SW 12.0 mph 22.0 mph 72 % 0.00 in 276 W/m2
10:18 61.7 °F 52.6 °F 29.82 in SW 13.0 mph 23.0 mph 72 % 0.00 in 193 W/m2
10:23 61.5 °F 52.4 °F 29.83 in SW 14.0 mph 24.0 mph 72 % 0.00 in 207 W/m2
10:28 61.5 °F 52.4 °F 29.82 in SW 14.0 mph 24.0 mph 72 % 0.00 in 394 W/m2
10:33 61.9 °F 52.8 °F 29.82 in SW 12.0 mph 21.0 mph 72 % 0.00 in 278 W/m2
10:38 62.1 °F 52.5 °F 29.82 in SW 10.0 mph 18.0 mph 71 % 0.00 in 497 W/m2
10:43 62.8 °F 53.2 °F 29.81 in SW 10.0 mph 22.0 mph 71 % 0.00 in 1039 W/m2
10:48 63.1 °F 52.0 °F 29.81 in SW 13.0 mph 26.0 mph 67 % 0.00 in 489 W/m2
10:53 63.1 °F 52.4 °F 29.82 in SW 15.0 mph 26.0 mph 68 % 0.00 in 301 W/m2
10:58 63.0 °F 51.4 °F 29.82 in SW 14.0 mph 25.0 mph 66 % 0.00 in 332 W/m2
11:03 63.1 °F 52.4 °F 29.81 in SW 14.0 mph 25.0 mph 68 % 0.00 in 432 W/m2
11:08 63.7 °F 53.3 °F 29.81 in SW 12.0 mph 21.0 mph 69 % 0.00 in 425 W/m2
11:13 64.2 °F 52.6 °F 29.81 in SW 12.0 mph 22.0 mph 66 % 0.00 in 425 W/m2
11:18 64.0 °F 52.0 °F 29.81 in SSW 15.0 mph 27.0 mph 65 % 0.00 in 285 W/m2
11:23 63.5 °F 52.7 °F 29.81 in SSW 14.0 mph 27.0 mph 68 % 0.00 in 357 W/m2
11:28 63.1 °F 52.8 °F 29.81 in SW 12.0 mph 19.0 mph 69 % 0.00 in 165 W/m2
11:33 62.8 °F 53.2 °F 29.81 in SSW 12.0 mph 20.0 mph 71 % 0.00 in 362 W/m2
11:38 62.8 °F 53.2 °F 29.80 in SSW 10.0 mph 20.0 mph 71 % 0.00 in 355 W/m2
11:43 63.0 °F 53.0 °F 29.80 in SSW 11.0 mph 20.0 mph 70 % 0.00 in 278 W/m2
11:48 63.1 °F 52.4 °F 29.80 in SSW 11.0 mph 21.0 mph 68 % 0.00 in 214 W/m2
11:53 63.1 °F 52.4 °F 29.79 in SSW 11.0 mph 21.0 mph 68 % 0.00 in 285 W/m2
11:58 63.3 °F 52.6 °F 29.79 in SW 13.0 mph 20.0 mph 68 % 0.00 in 438 W/m2
12:03 64.0 °F 52.9 °F 29.79 in SW 11.0 mph 20.0 mph 67 % 0.00 in 469 W/m2
12:08 64.2 °F 53.0 °F 29.79 in SW 11.0 mph 21.0 mph 67 % 0.00 in 452 W/m2
12:13 64.4 °F 52.8 °F 29.78 in SW 11.0 mph 21.0 mph 66 % 0.00 in 220 W/m2
12:18 64.4 °F 52.8 °F 29.79 in SW 10.0 mph 19.0 mph 66 % 0.00 in 213 W/m2
12:23 64.0 °F 52.4 °F 29.78 in SW 11.0 mph 19.0 mph 66 % 0.00 in 299 W/m2
12:28 63.9 °F 52.3 °F 29.78 in SW 13.0 mph 25.0 mph 66 % 0.00 in 218 W/m2
12:33 63.9 °F 52.3 °F 29.78 in SW 13.0 mph 25.0 mph 66 % 0.00 in 156 W/m2
12:38 63.9 °F 52.7 °F 29.78 in SW 11.0 mph 21.0 mph 67 % 0.00 in 360 W/m2
12:43 64.0 °F 52.9 °F 29.78 in SW 9.0 mph 15.0 mph 67 % 0.00 in 260 W/m2
12:49 64.2 °F 52.2 °F 29.78 in SW 10.0 mph 23.0 mph 65 % 0.00 in 232 W/m2
12:53 64.2 °F 51.8 °F 29.78 in SW 13.0 mph 25.0 mph 64 % 0.00 in 229 W/m2
12:59 64.2 °F 51.8 °F 29.78 in SW 12.0 mph 25.0 mph 64 % 0.00 in 163 W/m2
13:04 64.2 °F 51.4 °F 29.78 in SW 12.0 mph 21.0 mph 63 % 0.00 in 151 W/m2
13:09 64.2 °F 50.5 °F 29.78 in SW 14.0 mph 28.0 mph 61 % 0.00 in 373 W/m2
13:14 64.2 °F 50.5 °F 29.78 in SW 16.0 mph 28.0 mph 61 % 0.00 in 346 W/m2
13:19 64.4 °F 50.2 °F 29.77 in SW 17.0 mph 29.0 mph 60 % 0.00 in 380 W/m2
13:24 64.6 °F 50.8 °F 29.77 in SW 15.0 mph 29.0 mph 61 % 0.00 in 506 W/m2
13:29 65.1 °F 51.8 °F 29.77 in SW 13.0 mph 27.0 mph 62 % 0.00 in 561 W/m2
13:34 65.5 °F 51.2 °F 29.77 in SW 12.0 mph 22.0 mph 60 % 0.00 in 211 W/m2
13:40 64.9 °F 50.7 °F 29.78 in SW 14.0 mph 26.0 mph 60 % 0.00 in 279 W/m2
13:45 64.9 °F 51.6 °F 29.77 in SW 14.0 mph 26.0 mph 62 % 0.00 in 288 W/m2
13:50 64.9 °F 51.6 °F 29.77 in SW 13.0 mph 22.0 mph 62 % 0.00 in 343 W/m2
13:55 64.9 °F 51.6 °F 29.77 in SW 12.0 mph 22.0 mph 62 % 0.00 in 274 W/m2
14:00 64.8 °F 51.0 °F 29.77 in SW 13.0 mph 23.0 mph 61 % 0.00 in 438 W/m2
14:05 64.9 °F 51.2 °F 29.77 in SSW 16.0 mph 26.0 mph 61 % 0.00 in 459 W/m2
14:10 65.3 °F 51.9 °F 29.77 in SSW 16.0 mph 26.0 mph 62 % 0.00 in 480 W/m2
14:12 65.7 °F 51.4 °F 29.77 in SW 15.0 mph 26.0 mph 60 % 0.00 in 480 W/m2
14:17 65.8 °F 51.6 °F 29.77 in SW 15.0 mph 24.0 mph 60 % 0.00 in 501 W/m2
14:22 65.8 °F 52.5 °F 29.76 in SW 13.0 mph 23.0 mph 62 % 0.00 in 276 W/m2
14:27 65.5 °F 51.2 °F 29.76 in SSW 14.0 mph 28.0 mph 60 % 0.00 in 322 W/m2
14:32 65.5 °F 51.7 °F 29.76 in SW 17.0 mph 28.0 mph 61 % 0.00 in 322 W/m2
14:37 66.4 °F 52.5 °F 29.76 in SW 16.0 mph 27.0 mph 61 % 0.00 in 997 W/m2
14:42 66.4 °F 52.1 °F 29.76 in SW 16.0 mph 30.0 mph 60 % 0.00 in 345 W/m2
14:47 66.6 °F 53.1 °F 29.75 in SW 16.0 mph 30.0 mph 62 % 0.00 in 962 W/m2
14:52 66.7 °F 52.9 °F 29.76 in SW 16.0 mph 29.0 mph 61 % 0.00 in 1071 W/m2
14:57 66.6 °F 52.2 °F 29.76 in SW 19.0 mph 38.0 mph 60 % 0.00 in 837 W/m2
15:02 66.2 °F 52.3 °F 29.76 in WSW 19.0 mph 38.0 mph 61 % 0.00 in 264 W/m2
15:07 65.5 °F 52.5 °F 29.75 in SW 18.0 mph 30.0 mph 63 % 0.00 in 411 W/m2
15:13 65.1 °F 52.6 °F 29.76 in SW 18.0 mph 32.0 mph 64 % 0.00 in 137 W/m2
15:18 64.6 °F 54.2 °F 29.76 in WSW 15.0 mph 32.0 mph 69 % 0.00 in 98 W/m2
15:23 63.1 °F 55.1 °F 29.76 in WSW 14.0 mph 24.0 mph 75 % 0.01 in 287 W/m2
15:28 61.3 °F 55.1 °F 29.76 in SW 14.0 mph 24.0 mph 80 % 0.01 in 404 W/m2
15:33 60.8 °F 55.3 °F 29.75 in SW 14.0 mph 24.0 mph 82 % 0.01 in 420 W/m2
15:38 60.6 °F 55.4 °F 29.75 in SW 15.0 mph 26.0 mph 83 % 0.01 in 738 W/m2
15:43 61.2 °F 56.3 °F 29.75 in SW 13.0 mph 26.0 mph 84 % 0.01 in 735 W/m2
15:48 61.5 °F 55.6 °F 29.75 in SW 13.0 mph 24.0 mph 81 % 0.01 in 770 W/m2
15:53 61.9 °F 55.3 °F 29.75 in SW 14.0 mph 24.0 mph 79 % 0.01 in 373 W/m2
15:58 61.9 °F 55.3 °F 29.75 in SW 13.0 mph 23.0 mph 79 % 0.01 in 327 W/m2
16:03 62.2 °F 55.3 °F 29.75 in SW 12.0 mph 22.0 mph 78 % 0.01 in 916 W/m2
16:08 63.1 °F 55.4 °F 29.75 in SW 12.0 mph 23.0 mph 76 % 0.01 in 849 W/m2
16:13 63.7 °F 55.2 °F 29.75 in SW 13.0 mph 26.0 mph 74 % 0.01 in 339 W/m2
16:18 63.5 °F 55.1 °F 29.75 in SW 13.0 mph 26.0 mph 74 % 0.01 in 302 W/m2
16:23 63.3 °F 55.3 °F 29.74 in SW 12.0 mph 23.0 mph 75 % 0.00 in 714 W/m2
16:28 63.9 °F 54.7 °F 29.73 in SW 12.0 mph 21.0 mph 72 % 0.00 in 701 W/m2
16:33 64.0 °F 54.4 °F 29.73 in SW 14.0 mph 24.0 mph 71 % 0.00 in 693 W/m2
16:38 64.0 °F 54.1 °F 29.73 in SW 14.0 mph 24.0 mph 70 % 0.00 in 693 W/m2
16:43 63.9 °F 53.9 °F 29.74 in SW 13.0 mph 24.0 mph 70 % 0.00 in 626 W/m2
16:53 64.2 °F 53.4 °F 29.74 in SW 13.0 mph 23.0 mph 68 % 0.00 in 626 W/m2
16:58 64.8 °F 51.0 °F 29.74 in SW 15.0 mph 34.0 mph 61 % 0.00 in 628 W/m2
17:03 65.1 °F 50.9 °F 29.74 in WSW 18.0 mph 34.0 mph 60 % 0.00 in 605 W/m2
17:08 65.3 °F 50.1 °F 29.74 in SW 19.0 mph 30.0 mph 58 % 0.00 in 622 W/m2
17:13 65.3 °F 50.6 °F 29.74 in SW 18.0 mph 30.0 mph 59 % 0.00 in 654 W/m2
17:18 65.3 °F 51.1 °F 29.74 in SW 16.0 mph 28.0 mph 60 % 0.00 in 633 W/m2
17:23 65.5 °F 49.8 °F 29.74 in WSW 15.0 mph 29.0 mph 57 % 0.00 in 236 W/m2
17:28 65.5 °F 50.3 °F 29.74 in WSW 17.0 mph 32.0 mph 58 % 0.00 in 207 W/m2
17:33 65.7 °F 50.5 °F 29.73 in WSW 17.0 mph 32.0 mph 58 % 0.00 in 206 W/m2
17:38 64.9 °F 50.3 °F 29.74 in WSW 17.0 mph 33.0 mph 59 % 0.00 in 178 W/m2
17:43 64.2 °F 50.9 °F 29.74 in SW 17.0 mph 33.0 mph 62 % 0.00 in 239 W/m2
17:48 64.6 °F 51.7 °F 29.74 in SW 15.0 mph 26.0 mph 63 % 0.00 in 325 W/m2
17:58 64.4 °F 50.2 °F 29.74 in WSW 17.0 mph 29.0 mph 60 % 0.00 in 146 W/m2
18:03 63.9 °F 50.1 °F 29.74 in WSW 19.0 mph 31.0 mph 61 % 0.00 in 225 W/m2
18:08 64.0 °F 50.3 °F 29.74 in WSW 18.0 mph 31.0 mph 61 % 0.00 in 431 W/m2
18:13 64.2 °F 50.0 °F 29.74 in WSW 17.0 mph 30.0 mph 60 % 0.00 in 401 W/m2
18:18 64.0 °F 49.4 °F 29.74 in WSW 19.0 mph 32.0 mph 59 % 0.00 in 383 W/m2
18:23 64.0 °F 49.9 °F 29.74 in WSW 17.0 mph 32.0 mph 60 % 0.00 in 369 W/m2
18:28 64.2 °F 49.6 °F 29.74 in WSW 14.0 mph 26.0 mph 59 % 0.00 in 353 W/m2
18:33 64.2 °F 49.1 °F 29.74 in WSW 15.0 mph 27.0 mph 58 % 0.00 in 339 W/m2
18:38 64.2 °F 48.7 °F 29.74 in WSW 17.0 mph 29.0 mph 57 % 0.00 in 327 W/m2
18:43 64.0 °F 48.5 °F 29.74 in WSW 20.0 mph 32.0 mph 57 % 0.00 in 332 W/m2
18:49 63.7 °F 49.1 °F 29.74 in WSW 18.0 mph 32.0 mph 59 % 0.00 in 327 W/m2
18:54 63.5 °F 49.4 °F 29.74 in WSW 17.0 mph 29.0 mph 60 % 0.00 in 295 W/m2
18:59 63.3 °F 49.6 °F 29.74 in SW 16.0 mph 29.0 mph 61 % 0.00 in 267 W/m2
19:04 63.0 °F 49.3 °F 29.74 in WSW 15.0 mph 32.0 mph 61 % 0.00 in 54 W/m2
19:09 62.4 °F 49.2 °F 29.74 in WSW 17.0 mph 32.0 mph 62 % 0.00 in 53 W/m2
19:14 62.1 °F 49.3 °F 29.73 in WSW 15.0 mph 29.0 mph 63 % 0.00 in 162 W/m2
19:19 61.9 °F 49.6 °F 29.73 in WSW 14.0 mph 24.0 mph 64 % 0.00 in 32 W/m2
19:24 61.5 °F 49.2 °F 29.73 in WSW 14.0 mph 25.0 mph 64 % 0.00 in 257 W/m2
19:29 61.5 °F 49.6 °F 29.73 in WSW 15.0 mph 25.0 mph 65 % 0.00 in 197 W/m2
19:34 61.5 °F 49.6 °F 29.73 in SW 15.0 mph 25.0 mph 65 % 0.00 in 176 W/m2
19:39 61.3 °F 49.5 °F 29.73 in SW 16.0 mph 30.0 mph 65 % 0.00 in 163 W/m2
19:44 61.3 °F 49.5 °F 29.73 in WSW 18.0 mph 30.0 mph 65 % 0.00 in 153 W/m2
19:49 61.5 °F 49.2 °F 29.73 in WSW 18.0 mph 31.0 mph 64 % 0.00 in 142 W/m2
19:54 61.3 °F 49.1 °F 29.74 in WSW 18.0 mph 31.0 mph 64 % 0.00 in 30 W/m2
19:59 61.0 °F 48.7 °F 29.74 in WSW 18.0 mph 31.0 mph 64 % 0.00 in 26 W/m2
20:04 60.6 °F 49.2 °F 29.74 in WSW 17.0 mph 31.0 mph 66 % 0.00 in 104 W/m2
20:09 60.4 °F 48.6 °F 29.74 in WSW 18.0 mph 30.0 mph 65 % 0.00 in 25 W/m2
20:14 60.3 °F 48.9 °F 29.74 in WSW 17.0 mph 30.0 mph 66 % 0.00 in 26 W/m2
20:19 60.1 °F 49.1 °F 29.74 in WSW 16.0 mph 30.0 mph 67 % 0.00 in 28 W/m2
20:24 59.9 °F 48.9 °F 29.74 in WSW 17.0 mph 30.0 mph 67 % 0.00 in 33 W/m2
20:29 59.9 °F 49.3 °F 29.74 in WSW 16.0 mph 27.0 mph 68 % 0.00 in 26 W/m2
20:34 59.7 °F 49.1 °F 29.74 in WSW 14.0 mph 25.0 mph 68 % 0.00 in 21 W/m2
20:39 59.5 °F 49.4 °F 29.74 in WSW 13.0 mph 26.0 mph 69 % 0.00 in 19 W/m2
20:44 59.4 °F 49.2 °F 29.74 in WSW 16.0 mph 32.0 mph 69 % 0.00 in 28 W/m2
20:49 59.4 °F 48.8 °F 29.74 in WSW 18.0 mph 32.0 mph 68 % 0.00 in 23 W/m2
20:54 59.4 °F 49.2 °F 29.74 in WSW 16.0 mph 29.0 mph 69 % 0.00 in 26 W/m2
20:59 59.2 °F 49.0 °F 29.74 in WSW 14.0 mph 26.0 mph 69 % 0.00 in 16 W/m2
21:04 59.0 °F 48.8 °F 29.74 in WSW 13.0 mph 25.0 mph 69 % 0.00 in 12 W/m2
21:09 58.8 °F 48.7 °F 29.74 in WSW 13.0 mph 28.0 mph 69 % 0.00 in 11 W/m2
21:14 58.6 °F 48.5 °F 29.74 in WSW 15.0 mph 28.0 mph 69 % 0.00 in 9 W/m2
21:19 58.6 °F 48.5 °F 29.74 in WSW 16.0 mph 30.0 mph 69 % 0.00 in 9 W/m2
21:24 58.5 °F 48.3 °F 29.75 in WSW 17.0 mph 30.0 mph 69 % 0.00 in 7 W/m2
21:29 58.5 °F 48.3 °F 29.75 in WSW 16.0 mph 26.0 mph 69 % 0.00 in 5 W/m2
21:34 58.5 °F 48.3 °F 29.75 in WSW 14.0 mph 23.0 mph 69 % 0.00 in 0 W/m2
21:39 58.3 °F 48.5 °F 29.75 in WSW 12.0 mph 21.0 mph 70 % 0.00 in 0 W/m2
21:50 58.1 °F 48.0 °F 29.76 in WSW 14.0 mph 24.0 mph 69 % 0.00 in 0 W/m2
21:55 57.9 °F 48.2 °F 29.76 in WSW 13.0 mph 24.0 mph 70 % 0.00 in 0 W/m2
22:00 57.7 °F 48.0 °F 29.76 in WSW 12.0 mph 23.0 mph 70 % 0.00 in 0 W/m2
22:05 57.7 °F 48.4 °F 29.77 in WSW 12.0 mph 22.0 mph 71 % 0.00 in 0 W/m2
22:10 57.6 °F 48.2 °F 29.77 in WSW 12.0 mph 22.0 mph 71 % 0.00 in 0 W/m2
22:15 57.4 °F 48.4 °F 29.77 in WSW 11.0 mph 20.0 mph 72 % 0.00 in 0 W/m2
22:20 57.2 °F 48.6 °F 29.77 in WSW 11.0 mph 21.0 mph 73 % 0.00 in 0 W/m2
22:25 57.2 °F 48.6 °F 29.77 in WSW 13.0 mph 23.0 mph 73 % 0.00 in 0 W/m2
22:30 57.2 °F 48.6 °F 29.77 in WSW 13.0 mph 23.0 mph 73 % 0.00 in 0 W/m2
22:35 57.2 °F 49.0 °F 29.77 in WSW 14.0 mph 25.0 mph 74 % 0.00 in 0 W/m2
22:40 57.4 °F 49.2 °F 29.77 in WSW 16.0 mph 28.0 mph 74 % 0.00 in 0 W/m2
22:45 57.4 °F 49.2 °F 29.77 in WSW 15.0 mph 28.0 mph 74 % 0.00 in 0 W/m2
22:50 57.4 °F 49.2 °F 29.78 in WSW 13.0 mph 23.0 mph 74 % 0.00 in 0 W/m2
22:55 57.4 °F 49.2 °F 29.78 in WSW 12.0 mph 21.0 mph 74 % 0.00 in 0 W/m2
23:00 57.6 °F 49.3 °F 29.78 in WSW 11.0 mph 19.0 mph 74 % 0.00 in 0 W/m2
23:05 57.6 °F 49.7 °F 29.78 in WSW 11.0 mph 19.0 mph 75 % 0.00 in 0 W/m2
23:10 57.6 °F 49.7 °F 29.78 in WSW 13.0 mph 22.0 mph 75 % 0.00 in 0 W/m2
23:15 57.4 °F 49.5 °F 29.78 in WSW 13.0 mph 22.0 mph 75 % 0.00 in 0 W/m2
23:20 57.6 °F 49.7 °F 29.78 in WSW 14.0 mph 24.0 mph 75 % 0.00 in 0 W/m2
23:25 57.6 °F 49.7 °F 29.78 in WSW 14.0 mph 24.0 mph 75 % 0.00 in 0 W/m2
23:30 57.4 °F 49.5 °F 29.78 in WSW 13.0 mph 23.0 mph 75 % 0.00 in 0 W/m2
23:35 57.4 °F 49.5 °F 29.78 in WSW 14.0 mph 29.0 mph 75 % 0.00 in 0 W/m2
23:40 57.4 °F 49.9 °F 29.78 in WSW 13.0 mph 29.0 mph 76 % 0.00 in 0 W/m2
23:45 57.4 °F 49.9 °F 29.78 in WSW 13.0 mph 22.0 mph 76 % 0.00 in 0 W/m2
23:50 57.2 °F 49.7 °F 29.78 in WSW 15.0 mph 25.0 mph 76 % 0.00 in 0 W/m2
23:55 57.2 °F 49.7 °F 29.78 in WSW 15.0 mph 25.0 mph 76 % 0.00 in 0 W/m2
23:57 57.2 °F 49.7 °F 29.78 in WSW 15.0 mph 25.0 mph 76 % 0.00 in 0 W/m2
Delerius-Weather
Compliments of Weather Underground - 2.25 mb

Data updates at regular intervals.